createdAt,value
2023-01-31T00:01:20.191Z,2.42
2023-01-31T00:03:48.239Z,2.38
2023-01-31T00:06:19.317Z,2.47
2023-01-31T00:08:48.151Z,2.40
2023-01-31T00:11:16.621Z,2.34
2023-01-31T00:13:44.056Z,2.36
2023-01-31T00:16:11.894Z,2.37
2023-01-31T00:18:39.346Z,2.31
2023-01-31T00:21:17.964Z,2.30
2023-01-31T00:23:45.943Z,2.30
2023-01-31T00:26:17.187Z,2.27
2023-01-31T00:28:45.181Z,2.31
2023-01-31T00:31:13.753Z,2.26
2023-01-31T00:33:41.880Z,2.30
2023-01-31T00:36:14.531Z,2.33
2023-01-31T00:38:42.485Z,2.31
2023-01-31T00:41:09.404Z,2.34
2023-01-31T00:43:36.112Z,2.47
2023-01-31T00:46:04.436Z,2.58
2023-01-31T00:48:31.631Z,2.71
2023-01-31T00:50:58.297Z,2.74
2023-01-31T00:53:25.693Z,2.75
2023-01-31T00:55:55.667Z,2.82
2023-01-31T00:58:22.556Z,2.89
2023-01-31T01:00:49.826Z,2.91
2023-01-31T01:03:16.444Z,2.98
2023-01-31T01:05:43.261Z,2.98
2023-01-31T01:08:10.123Z,3.06
2023-01-31T01:10:37.255Z,3.06
2023-01-31T01:13:05.638Z,3.02
2023-01-31T01:15:33.153Z,3.01
2023-01-31T01:17:59.730Z,3.09
2023-01-31T01:20:26.498Z,3.12
2023-01-31T01:22:53.484Z,3.15
2023-01-31T01:25:20.662Z,3.18
2023-01-31T01:27:47.643Z,3.20
2023-01-31T01:30:15.864Z,3.27
2023-01-31T01:32:42.496Z,3.24
2023-01-31T01:35:10.125Z,3.24
2023-01-31T01:37:36.679Z,3.23
2023-01-31T01:40:03.951Z,3.22
2023-01-31T01:42:35.291Z,3.24
2023-01-31T01:45:05.076Z,3.24
2023-01-31T01:47:36.933Z,3.29
2023-01-31T01:50:15.685Z,3.33
2023-01-31T01:52:55.857Z,3.33
2023-01-31T01:55:24.875Z,3.40
2023-01-31T01:57:56.572Z,3.39
2023-01-31T02:00:27.879Z,3.41
2023-01-31T02:02:59.033Z,3.41
2023-01-31T02:05:36.783Z,3.37
2023-01-31T02:08:04.070Z,3.37
2023-01-31T02:10:49.537Z,3.36
2023-01-31T02:13:17.446Z,3.41
2023-01-31T02:15:44.757Z,3.34
2023-01-31T02:18:12.235Z,3.39
2023-01-31T02:21:10.016Z,3.39
2023-01-31T02:24:00.677Z,3.41
2023-01-31T02:26:33.281Z,3.43
2023-01-31T02:29:25.753Z,3.40
2023-01-31T02:32:29.227Z,3.36
2023-01-31T02:35:21.264Z,3.36
2023-01-31T02:38:06.093Z,3.34
2023-01-31T02:40:35.906Z,3.36
2023-01-31T02:43:24.095Z,3.29
2023-01-31T02:46:10.622Z,3.22
2023-01-31T02:49:02.202Z,3.06
2023-01-31T02:51:38.596Z,2.93
2023-01-31T02:54:08.917Z,2.81
2023-01-31T02:56:39.242Z,2.58
2023-01-31T02:59:09.573Z,2.48
2023-01-31T03:01:39.953Z,2.42
2023-01-31T03:04:09.726Z,2.37
2023-01-31T03:06:36.840Z,2.26
2023-01-31T03:09:25.647Z,2.26
2023-01-31T03:12:06.413Z,2.20
2023-01-31T03:14:57.161Z,2.10
2023-01-31T03:17:35.089Z,2.03
2023-01-31T03:20:13.335Z,1.95
2023-01-31T03:22:44.754Z,1.89
2023-01-31T03:25:15.471Z,1.82
2023-01-31T03:27:48.029Z,1.75
2023-01-31T03:30:22.778Z,1.79
2023-01-31T03:32:56.256Z,1.75
2023-01-31T03:35:27.746Z,1.78
2023-01-31T03:38:01.250Z,1.75
2023-01-31T03:40:34.835Z,1.75
2023-01-31T03:43:05.181Z,1.70
2023-01-31T03:45:57.043Z,1.62
2023-01-31T03:48:30.263Z,1.56
2023-01-31T03:51:01.500Z,1.56
2023-01-31T03:53:46.644Z,1.58
2023-01-31T03:56:26.624Z,1.59
2023-01-31T03:58:59.857Z,1.55
2023-01-31T04:01:29.409Z,1.52
2023-01-31T04:04:01.779Z,1.55
2023-01-31T04:06:28.912Z,1.56
2023-01-31T04:08:55.682Z,1.58
2023-01-31T04:11:25.973Z,1.55
2023-01-31T04:13:52.940Z,1.45
2023-01-31T04:16:19.771Z,1.49
2023-01-31T04:18:46.552Z,1.47
2023-01-31T04:21:15.246Z,1.38
2023-01-31T04:23:42.246Z,1.37
2023-01-31T04:26:08.817Z,1.41
2023-01-31T04:28:35.425Z,1.40
2023-01-31T04:31:02.101Z,1.38
2023-01-31T04:33:28.754Z,1.34
2023-01-31T04:35:55.410Z,1.37
2023-01-31T04:38:22.220Z,1.38
2023-01-31T04:40:48.778Z,1.44
2023-01-31T04:43:15.464Z,1.45
2023-01-31T04:45:42.396Z,1.47
2023-01-31T04:48:09.012Z,1.49
2023-01-31T04:51:01.267Z,1.52
2023-01-31T04:53:27.850Z,1.56
2023-01-31T04:55:55.157Z,1.55
2023-01-31T04:58:22.876Z,1.56
2023-01-31T05:00:49.572Z,1.61
2023-01-31T05:03:16.660Z,1.63
2023-01-31T05:05:43.291Z,1.69
2023-01-31T05:08:09.944Z,1.68
2023-01-31T05:10:37.096Z,1.70
2023-01-31T05:13:03.901Z,1.78
2023-01-31T05:15:30.561Z,1.73
2023-01-31T05:18:03.497Z,1.73
2023-01-31T05:20:39.784Z,1.75
2023-01-31T05:23:07.418Z,1.80
2023-01-31T05:25:36.079Z,1.80
2023-01-31T05:28:04.572Z,1.82
2023-01-31T05:30:31.637Z,1.83
2023-01-31T05:32:58.757Z,1.89
2023-01-31T05:35:25.475Z,1.96
2023-01-31T05:37:56.074Z,2.02
2023-01-31T05:40:22.959Z,2.06
2023-01-31T05:42:58.117Z,2.07
2023-01-31T05:45:25.011Z,2.26
2023-01-31T05:47:51.822Z,2.34
2023-01-31T05:50:19.255Z,2.44
2023-01-31T05:52:53.572Z,2.48
2023-01-31T05:55:24.500Z,2.62
2023-01-31T05:57:52.379Z,2.71
2023-01-31T06:00:20.164Z,2.78
2023-01-31T06:02:48.079Z,2.78
2023-01-31T06:05:14.810Z,2.82
2023-01-31T06:07:41.391Z,2.82
2023-01-31T06:10:11.121Z,2.91
2023-01-31T06:12:39.110Z,2.96
2023-01-31T06:16:02.442Z,2.92
2023-01-31T06:18:29.351Z,2.95
2023-01-31T06:20:56.075Z,3.03
2023-01-31T06:23:22.873Z,3.02
2023-01-31T06:25:54.162Z,3.06
2023-01-31T06:28:21.152Z,3.06
2023-01-31T06:30:48.211Z,3.03
2023-01-31T06:33:15.473Z,3.10
2023-01-31T06:35:43.153Z,3.12
2023-01-31T06:38:12.385Z,3.09
2023-01-31T06:40:39.044Z,3.10
2023-01-31T06:43:05.621Z,3.16
2023-01-31T06:45:32.171Z,3.15
2023-01-31T06:47:58.770Z,3.16
2023-01-31T06:50:25.494Z,3.20
2023-01-31T06:52:52.047Z,3.23
2023-01-31T06:55:19.085Z,3.23
2023-01-31T06:57:50.145Z,3.23
2023-01-31T07:00:18.707Z,3.23
2023-01-31T07:02:46.464Z,3.22
2023-01-31T07:05:13.262Z,3.30
2023-01-31T07:07:42.005Z,3.41
2023-01-31T07:10:09.534Z,3.39
2023-01-31T07:12:36.107Z,3.44
2023-01-31T07:15:02.941Z,3.47
2023-01-31T07:17:30.121Z,3.44
2023-01-31T07:19:56.886Z,3.51
2023-01-31T07:22:23.921Z,3.51
2023-01-31T07:24:51.090Z,3.56
2023-01-31T07:27:18.146Z,3.57
2023-01-31T07:29:44.911Z,3.54
2023-01-31T07:32:11.598Z,3.57
2023-01-31T07:34:38.255Z,3.53
2023-01-31T07:37:04.927Z,3.56
2023-01-31T07:39:32.293Z,3.63
2023-01-31T07:41:59.014Z,3.57
2023-01-31T07:44:25.948Z,3.64
2023-01-31T07:46:54.713Z,3.67
2023-01-31T07:49:21.375Z,3.71
2023-01-31T07:51:48.190Z,3.69
2023-01-31T07:54:15.129Z,3.63
2023-01-31T07:56:41.842Z,3.71
2023-01-31T07:59:08.565Z,3.70
2023-01-31T08:01:53.983Z,3.71
2023-01-31T08:04:22.653Z,3.66
2023-01-31T08:06:53.320Z,3.74
2023-01-31T08:09:43.438Z,3.74
2023-01-31T08:12:12.831Z,3.84
2023-01-31T08:14:39.422Z,3.81
2023-01-31T08:17:08.206Z,3.74
2023-01-31T08:19:36.173Z,3.77
2023-01-31T08:22:04.725Z,3.81
2023-01-31T08:24:32.760Z,3.77
2023-01-31T08:27:00.229Z,3.81
2023-01-31T08:29:27.201Z,3.73
2023-01-31T08:31:54.230Z,3.61
2023-01-31T08:34:23.101Z,3.70
2023-01-31T08:36:49.659Z,3.73
2023-01-31T08:39:16.365Z,3.66
2023-01-31T08:41:42.954Z,3.70
2023-01-31T08:44:11.925Z,3.73
2023-01-31T08:46:38.623Z,3.75
2023-01-31T08:49:07.005Z,3.74
2023-01-31T08:51:33.687Z,3.82
2023-01-31T08:54:01.071Z,3.92
2023-01-31T08:56:28.172Z,3.92
2023-01-31T08:58:55.790Z,3.91
2023-01-31T09:01:23.130Z,3.94
2023-01-31T09:03:50.750Z,3.99
2023-01-31T09:06:20.106Z,4.01
2023-01-31T09:08:47.189Z,3.99
2023-01-31T09:11:19.733Z,3.97
2023-01-31T09:13:49.547Z,3.99
2023-01-31T09:16:16.368Z,4.02
2023-01-31T09:18:43.117Z,3.99
2023-01-31T09:21:18.790Z,4.11
2023-01-31T09:23:46.949Z,4.13
2023-01-31T09:26:15.182Z,4.15
2023-01-31T09:28:43.236Z,4.25
2023-01-31T09:31:15.262Z,4.22
2023-01-31T09:33:42.360Z,4.29
2023-01-31T09:36:12.122Z,4.35
2023-01-31T09:38:40.147Z,4.43
2023-01-31T09:41:24.949Z,4.56
2023-01-31T09:43:56.783Z,4.48
2023-01-31T09:46:29.738Z,4.57
2023-01-31T09:48:59.676Z,4.56
2023-01-31T09:51:26.361Z,4.63
2023-01-31T09:53:55.617Z,4.62
2023-01-31T09:56:33.995Z,4.77
2023-01-31T09:59:03.599Z,4.84
2023-01-31T10:01:59.422Z,4.81
2023-01-31T10:05:03.790Z,4.76
2023-01-31T10:07:49.867Z,4.84
2023-01-31T10:10:25.888Z,4.90
2023-01-31T10:12:57.917Z,4.95
2023-01-31T10:15:46.714Z,5.00
2023-01-31T10:18:34.060Z,5.08
2023-01-31T10:21:10.965Z,4.91
2023-01-31T10:23:44.902Z,4.83
2023-01-31T10:26:26.782Z,4.70
2023-01-31T10:29:06.623Z,4.85
2023-01-31T10:31:44.322Z,4.84
2023-01-31T10:34:20.175Z,4.84
2023-01-31T10:37:19.159Z,4.83
2023-01-31T10:39:52.271Z,4.81
2023-01-31T10:42:34.593Z,4.94
2023-01-31T10:45:23.634Z,5.04
2023-01-31T10:48:01.875Z,5.21
2023-01-31T10:50:51.308Z,5.17
2023-01-31T10:53:54.496Z,5.05
2023-01-31T10:56:37.975Z,5.11
2023-01-31T10:59:20.242Z,5.14
2023-01-31T11:01:47.000Z,5.12
2023-01-31T11:04:40.759Z,5.18
2023-01-31T11:07:09.298Z,5.02
2023-01-31T11:09:48.312Z,5.20
2023-01-31T11:12:14.976Z,5.18
2023-01-31T11:14:41.797Z,5.18
2023-01-31T11:17:19.101Z,5.20
2023-01-31T11:19:50.250Z,5.22
2023-01-31T11:22:30.988Z,5.27
2023-01-31T11:24:59.682Z,5.34
2023-01-31T11:27:36.805Z,5.60
2023-01-31T11:30:05.662Z,5.39
2023-01-31T11:32:36.966Z,5.39
2023-01-31T11:35:21.532Z,5.27
2023-01-31T11:37:56.156Z,5.32
2023-01-31T11:40:27.738Z,5.27
2023-01-31T11:42:59.498Z,5.28
2023-01-31T11:45:30.574Z,5.38
2023-01-31T11:48:05.075Z,5.25
2023-01-31T11:50:36.047Z,5.22
2023-01-31T11:53:13.179Z,5.14
2023-01-31T11:55:40.816Z,5.07
2023-01-31T11:58:33.074Z,5.02
2023-01-31T12:01:08.163Z,4.87
2023-01-31T12:03:34.933Z,4.84
2023-01-31T12:06:07.344Z,4.81
2023-01-31T12:08:36.971Z,4.74
2023-01-31T12:11:06.218Z,4.71
2023-01-31T12:13:46.312Z,4.71
2023-01-31T12:16:13.131Z,4.80
2023-01-31T12:18:51.870Z,4.77
2023-01-31T12:21:27.307Z,4.77
2023-01-31T12:24:31.405Z,4.81
2023-01-31T12:27:22.795Z,4.66
2023-01-31T12:30:16.450Z,4.63
2023-01-31T12:32:59.471Z,4.60
2023-01-31T12:35:26.518Z,4.59
2023-01-31T12:38:27.037Z,4.57
2023-01-31T12:41:02.855Z,4.60
2023-01-31T12:43:57.135Z,4.43
2023-01-31T12:46:23.790Z,4.52
2023-01-31T12:49:12.507Z,4.48
2023-01-31T12:51:59.865Z,4.48
2023-01-31T12:54:29.251Z,4.43
2023-01-31T12:57:09.527Z,4.48
2023-01-31T12:59:42.126Z,4.42
2023-01-31T13:02:08.746Z,4.35
2023-01-31T13:04:45.380Z,4.32
2023-01-31T13:07:43.988Z,4.28
2023-01-31T13:10:36.530Z,4.21
2023-01-31T13:13:06.160Z,4.25
2023-01-31T13:15:32.675Z,4.26
2023-01-31T13:18:04.911Z,4.29
2023-01-31T13:20:52.881Z,4.29
2023-01-31T13:23:34.631Z,4.35
2023-01-31T13:26:12.178Z,4.29
2023-01-31T13:28:47.791Z,4.32
2023-01-31T13:31:24.422Z,4.38
2023-01-31T13:33:57.421Z,4.33
2023-01-31T13:36:39.656Z,4.35
2023-01-31T13:39:21.995Z,4.38
2023-01-31T13:41:48.636Z,4.33
2023-01-31T13:44:17.277Z,4.39
2023-01-31T13:46:46.739Z,4.43
2023-01-31T13:49:28.424Z,4.38
2023-01-31T13:52:01.943Z,4.40
2023-01-31T13:54:35.095Z,4.39
2023-01-31T13:57:02.630Z,4.43
2023-01-31T13:59:35.578Z,4.53
2023-01-31T14:02:05.771Z,4.39
2023-01-31T14:04:40.108Z,4.39
2023-01-31T14:07:07.045Z,4.32
2023-01-31T14:09:41.942Z,4.36
2023-01-31T14:12:17.485Z,4.33
2023-01-31T14:14:47.013Z,4.33
2023-01-31T14:17:28.775Z,4.35
2023-01-31T14:19:55.442Z,4.36
2023-01-31T14:22:25.909Z,4.40
2023-01-31T14:25:01.597Z,4.39
2023-01-31T14:27:32.435Z,4.43
2023-01-31T14:30:08.315Z,4.48
2023-01-31T14:32:48.508Z,4.52
2023-01-31T14:35:15.137Z,4.49
2023-01-31T14:38:00.508Z,4.42
2023-01-31T14:40:32.430Z,4.45
2023-01-31T14:43:25.377Z,4.46
2023-01-31T14:46:16.867Z,4.48
2023-01-31T14:48:49.406Z,4.49
2023-01-31T14:51:31.425Z,4.53
2023-01-31T14:54:14.305Z,4.56
2023-01-31T14:57:01.926Z,4.52
2023-01-31T14:59:28.513Z,4.57
2023-01-31T15:01:56.547Z,4.63
2023-01-31T15:04:26.182Z,4.62
2023-01-31T15:06:54.498Z,4.63
2023-01-31T15:09:21.478Z,4.64
2023-01-31T15:11:49.637Z,4.69
2023-01-31T15:14:37.791Z,4.64
2023-01-31T15:17:35.185Z,4.67
2023-01-31T15:20:14.995Z,4.76
2023-01-31T15:22:43.793Z,4.67
2023-01-31T15:25:49.199Z,4.67
2023-01-31T15:28:19.244Z,4.66
2023-01-31T15:30:46.511Z,4.67
2023-01-31T15:33:29.084Z,4.66
2023-01-31T15:36:02.621Z,4.73
2023-01-31T15:38:32.454Z,4.70
2023-01-31T15:41:26.968Z,4.76
2023-01-31T15:43:56.692Z,4.77
2023-01-31T15:46:30.931Z,4.77
2023-01-31T15:48:59.437Z,4.79
2023-01-31T15:51:26.766Z,4.77
2023-01-31T15:54:07.136Z,4.80
2023-01-31T15:56:41.570Z,4.80
2023-01-31T15:59:14.294Z,4.81
2023-01-31T16:01:47.684Z,4.85
2023-01-31T16:04:14.392Z,4.87
2023-01-31T16:06:41.133Z,4.87
2023-01-31T16:09:22.636Z,4.88
2023-01-31T16:11:49.529Z,4.85
2023-01-31T16:14:17.189Z,4.88
2023-01-31T16:16:47.954Z,4.93
2023-01-31T16:19:24.148Z,4.97
2023-01-31T16:21:51.298Z,4.95
2023-01-31T16:24:19.571Z,4.95
2023-01-31T16:27:11.651Z,5.00
2023-01-31T16:29:43.551Z,5.05
2023-01-31T16:32:24.309Z,5.01
2023-01-31T16:35:14.027Z,5.02
2023-01-31T16:37:43.559Z,5.01
2023-01-31T16:40:28.115Z,5.10
2023-01-31T16:43:18.939Z,5.10
2023-01-31T16:46:19.479Z,5.08
2023-01-31T16:49:05.346Z,5.10
2023-01-31T16:51:32.023Z,5.12
2023-01-31T16:54:25.580Z,5.12
2023-01-31T16:57:01.370Z,5.12
2023-01-31T16:59:33.943Z,5.17
2023-01-31T17:02:18.366Z,5.14
2023-01-31T17:04:46.423Z,5.18
2023-01-31T17:07:22.393Z,5.18
2023-01-31T17:09:53.210Z,5.18
2023-01-31T17:12:24.255Z,5.15
2023-01-31T17:14:57.059Z,5.18
2023-01-31T17:17:37.119Z,5.15
2023-01-31T17:20:04.652Z,5.15
2023-01-31T17:22:31.329Z,5.21
2023-01-31T17:24:57.974Z,5.20
2023-01-31T17:27:25.090Z,5.18
2023-01-31T17:29:51.768Z,5.25
2023-01-31T17:32:20.647Z,5.30
2023-01-31T17:34:48.869Z,5.27
2023-01-31T17:37:20.905Z,5.25
2023-01-31T17:39:50.398Z,5.25
2023-01-31T17:42:20.336Z,5.27
2023-01-31T17:44:47.433Z,5.30
2023-01-31T17:47:14.407Z,5.32
2023-01-31T17:49:41.092Z,5.31
2023-01-31T17:52:07.754Z,5.35
2023-01-31T17:54:34.439Z,5.45
2023-01-31T17:57:01.149Z,5.48
2023-01-31T17:59:27.789Z,5.46
2023-01-31T18:01:54.677Z,5.46
2023-01-31T18:04:21.509Z,5.46
2023-01-31T18:06:48.189Z,5.52
2023-01-31T18:09:16.441Z,5.53
2023-01-31T18:11:43.813Z,5.58
2023-01-31T18:14:11.749Z,5.53
2023-01-31T18:16:38.640Z,5.53
2023-01-31T18:19:05.380Z,5.53
2023-01-31T18:21:32.150Z,5.60
2023-01-31T18:23:59.981Z,5.56
2023-01-31T18:26:26.685Z,5.49
2023-01-31T18:28:55.398Z,5.43
2023-01-31T18:31:22.133Z,5.43
2023-01-31T18:33:48.940Z,5.41
2023-01-31T18:36:18.936Z,5.38
2023-01-31T18:38:47.820Z,5.42
2023-01-31T18:41:18.181Z,5.46
2023-01-31T18:43:45.939Z,5.51
2023-01-31T18:46:13.367Z,5.52
2023-01-31T18:48:40.492Z,5.51
2023-01-31T18:51:10.304Z,5.56
2023-01-31T18:53:39.218Z,5.58
2023-01-31T18:56:17.077Z,5.62
2023-01-31T18:58:44.705Z,5.67
2023-01-31T19:01:24.442Z,5.38
2023-01-31T19:03:53.321Z,5.22
2023-01-31T19:06:25.562Z,5.22
2023-01-31T19:08:54.014Z,4.97
2023-01-31T19:11:23.202Z,4.79
2023-01-31T19:13:49.842Z,4.60
2023-01-31T19:16:20.515Z,4.45
2023-01-31T19:18:48.476Z,4.39
2023-01-31T19:21:19.087Z,4.36
2023-01-31T19:23:47.032Z,4.36
2023-01-31T19:26:15.702Z,4.29
2023-01-31T19:28:42.819Z,4.26
2023-01-31T19:31:12.012Z,4.23
2023-01-31T19:33:39.998Z,4.16
2023-01-31T19:36:15.461Z,4.16
2023-01-31T19:38:42.547Z,4.15
2023-01-31T19:41:14.858Z,4.12
2023-01-31T19:43:42.444Z,4.05
2023-01-31T19:46:09.654Z,4.03
2023-01-31T19:48:36.746Z,3.97
2023-01-31T19:51:09.084Z,3.97
2023-01-31T19:53:36.139Z,4.05
2023-01-31T19:56:03.602Z,4.05
2023-01-31T19:58:33.488Z,4.08
2023-01-31T20:01:06.458Z,4.01
2023-01-31T20:03:33.299Z,3.99
2023-01-31T20:06:08.540Z,3.95
2023-01-31T20:08:36.296Z,3.81
2023-01-31T20:11:04.382Z,3.75
2023-01-31T20:13:30.908Z,3.77
2023-01-31T20:15:59.198Z,3.80
2023-01-31T20:18:26.403Z,3.80
2023-01-31T20:20:53.914Z,3.80
2023-01-31T20:23:20.983Z,3.81
2023-01-31T20:25:49.561Z,3.77
2023-01-31T20:28:16.441Z,3.78
2023-01-31T20:30:43.400Z,3.73
2023-01-31T20:33:10.038Z,3.70
2023-01-31T20:35:36.720Z,3.67
2023-01-31T20:38:03.339Z,3.74
2023-01-31T20:40:29.984Z,3.71
2023-01-31T20:42:56.682Z,3.64
2023-01-31T20:45:28.944Z,3.56
2023-01-31T20:47:56.813Z,3.54
2023-01-31T20:50:24.409Z,3.59
2023-01-31T20:52:53.080Z,3.59
2023-01-31T20:55:19.866Z,3.66
2023-01-31T20:57:49.979Z,3.73
2023-01-31T21:00:18.107Z,3.84
2023-01-31T21:02:45.007Z,3.95
2023-01-31T21:05:12.216Z,3.97
2023-01-31T21:07:39.664Z,4.05
2023-01-31T21:10:07.337Z,4.15
2023-01-31T21:12:33.924Z,4.18
2023-01-31T21:15:00.627Z,4.19
2023-01-31T21:17:39.115Z,4.26
2023-01-31T21:20:07.651Z,4.25
2023-01-31T21:22:34.741Z,4.28
2023-01-31T21:25:02.272Z,4.08
2023-01-31T21:27:29.166Z,3.99
2023-01-31T21:29:55.842Z,3.92
2023-01-31T21:32:22.887Z,3.78
2023-01-31T21:34:49.566Z,3.56
2023-01-31T21:37:16.415Z,3.33
2023-01-31T21:39:43.034Z,3.18
2023-01-31T21:42:18.372Z,3.08
2023-01-31T21:44:46.840Z,2.99
2023-01-31T21:47:15.378Z,2.91
2023-01-31T21:49:42.513Z,2.89
2023-01-31T21:52:09.947Z,2.87
2023-01-31T21:54:37.311Z,2.89
2023-01-31T21:57:04.215Z,2.89
2023-01-31T21:59:32.406Z,2.88
2023-01-31T22:01:59.413Z,2.84
2023-01-31T22:04:26.683Z,2.70
2023-01-31T22:06:53.836Z,2.65
2023-01-31T22:09:20.528Z,2.57
2023-01-31T22:11:47.922Z,2.52
2023-01-31T22:14:16.481Z,2.48
2023-01-31T22:16:44.045Z,2.47
2023-01-31T22:19:12.724Z,2.54
2023-01-31T22:21:40.732Z,2.50
2023-01-31T22:24:11.392Z,2.47
2023-01-31T22:26:43.838Z,2.45
2023-01-31T22:29:13.416Z,2.51
2023-01-31T22:31:40.252Z,2.52
2023-01-31T22:34:07.466Z,2.60
2023-01-31T22:36:34.716Z,2.55
2023-01-31T22:39:01.740Z,2.54
2023-01-31T22:41:28.709Z,2.51
2023-01-31T22:43:56.071Z,2.55
2023-01-31T22:46:27.798Z,2.71
2023-01-31T22:48:55.655Z,2.77
2023-01-31T22:51:27.858Z,2.75
2023-01-31T22:53:56.458Z,2.77
2023-01-31T22:56:30.629Z,2.79
2023-01-31T22:59:00.238Z,2.92
2023-01-31T23:01:30.131Z,2.95
2023-01-31T23:03:58.406Z,3.10
2023-01-31T23:06:25.738Z,3.26
2023-01-31T23:08:52.850Z,3.30
2023-01-31T23:11:20.174Z,3.26
2023-01-31T23:13:47.218Z,3.30
2023-01-31T23:16:19.942Z,3.24
2023-01-31T23:18:47.138Z,3.23
2023-01-31T23:21:16.675Z,3.26
2023-01-31T23:23:44.603Z,3.19
2023-01-31T23:26:12.251Z,3.12
2023-01-31T23:28:39.332Z,3.09
2023-01-31T23:31:06.176Z,3.02
2023-01-31T23:33:33.249Z,3.03
2023-01-31T23:35:59.888Z,3.09
2023-01-31T23:38:26.397Z,3.10
2023-01-31T23:40:54.112Z,3.12
2023-01-31T23:43:21.891Z,3.19
2023-01-31T23:45:49.209Z,3.29
2023-01-31T23:48:15.975Z,3.29
2023-01-31T23:50:42.712Z,3.23
2023-01-31T23:53:09.337Z,3.20
2023-01-31T23:55:35.958Z,3.22
2023-01-31T23:58:02.707Z,3.18
